createdAt,value
2018-07-07T00:00:08.863Z,0
2018-07-07T00:00:49.267Z,0
2018-07-07T00:01:29.746Z,0
2018-07-07T00:02:10.117Z,0
2018-07-07T00:02:50.596Z,0
2018-07-07T00:03:31.002Z,0
2018-07-07T00:04:11.504Z,0
2018-07-07T00:04:51.855Z,0
2018-07-07T00:05:32.339Z,0
2018-07-07T00:06:12.622Z,0
2018-07-07T00:06:53.265Z,0
2018-07-07T00:07:33.537Z,0
2018-07-07T00:08:14.014Z,0
2018-07-07T00:08:54.367Z,0
2018-07-07T00:09:34.919Z,0
2018-07-07T00:10:15.323Z,0
2018-07-07T00:10:55.887Z,0
2018-07-07T00:11:36.376Z,0
2018-07-07T00:12:16.713Z,0
2018-07-07T00:12:57.527Z,0
2018-07-07T00:13:37.930Z,0
2018-07-07T00:14:21.284Z,0
2018-07-07T00:15:01.758Z,0
2018-07-07T00:15:42.228Z,0
2018-07-07T00:16:22.626Z,0
2018-07-07T00:17:02.970Z,0
2018-07-07T00:17:43.446Z,0
2018-07-07T00:18:23.824Z,0
2018-07-07T00:19:04.218Z,0
2018-07-07T00:19:44.682Z,0
2018-07-07T00:20:25.104Z,0
2018-07-07T00:21:05.562Z,0
2018-07-07T00:21:45.937Z,0
2018-07-07T00:22:26.331Z,0
2018-07-07T00:23:06.729Z,0
2018-07-07T00:23:47.190Z,0
2018-07-07T00:24:27.521Z,0
2018-07-07T00:25:08.007Z,0
2018-07-07T00:25:48.393Z,0
2018-07-07T00:26:28.753Z,0
2018-07-07T00:27:09.217Z,0
2018-07-07T00:27:49.621Z,0
2018-07-07T00:28:29.978Z,0
2018-07-07T00:29:10.492Z,0
2018-07-07T00:29:50.849Z,0
2018-07-07T00:30:31.338Z,0
2018-07-07T00:31:11.741Z,0
2018-07-07T00:31:52.083Z,0
2018-07-07T00:32:32.548Z,0
2018-07-07T00:33:12.905Z,0
2018-07-07T00:33:53.349Z,0
2018-07-07T00:34:33.789Z,0
2018-07-07T00:35:14.176Z,0
2018-07-07T00:35:54.572Z,0
2018-07-07T00:36:34.976Z,0
2018-07-07T00:37:15.485Z,0
2018-07-07T00:37:55.840Z,0
2018-07-07T00:38:36.221Z,0
2018-07-07T00:39:16.626Z,0
2018-07-07T00:39:56.987Z,0
2018-07-07T00:40:37.481Z,0
2018-07-07T00:41:17.795Z,0
2018-07-07T00:41:58.192Z,0
2018-07-07T00:42:38.607Z,0
2018-07-07T00:43:19.026Z,0
2018-07-07T00:43:59.360Z,0
2018-07-07T00:44:39.729Z,0
2018-07-07T00:45:20.185Z,0
2018-07-07T00:46:00.570Z,0
2018-07-07T00:46:40.963Z,0
2018-07-07T00:47:21.399Z,0
2018-07-07T00:48:01.789Z,0
2018-07-07T00:48:42.227Z,0
2018-07-07T00:49:22.651Z,0
2018-07-07T00:50:02.995Z,0
2018-07-07T00:50:43.441Z,0
2018-07-07T00:51:23.863Z,0
2018-07-07T00:52:04.280Z,0
2018-07-07T00:52:44.691Z,0
2018-07-07T00:53:25.103Z,0
2018-07-07T00:54:05.536Z,0
2018-07-07T00:54:45.909Z,0
2018-07-07T00:55:26.285Z,0
2018-07-07T00:56:06.676Z,0
2018-07-07T00:56:47.104Z,0
2018-07-07T00:57:27.524Z,0
2018-07-07T00:58:07.896Z,0
2018-07-07T00:58:48.313Z,0
2018-07-07T00:59:28.724Z,0
2018-07-07T01:00:09.104Z,0
2018-07-07T01:00:49.473Z,0
2018-07-07T01:01:29.917Z,0
2018-07-07T01:02:10.322Z,0
2018-07-07T01:02:50.680Z,0
2018-07-07T01:03:31.167Z,0
2018-07-07T01:04:11.482Z,0
2018-07-07T01:04:51.918Z,0
2018-07-07T01:05:32.335Z,0
2018-07-07T01:06:12.783Z,0
2018-07-07T01:06:53.126Z,0
2018-07-07T01:07:33.635Z,0
2018-07-07T01:08:14.039Z,0
2018-07-07T01:08:54.414Z,0
2018-07-07T01:09:34.844Z,0
2018-07-07T01:10:15.236Z,0
2018-07-07T01:10:55.640Z,0
2018-07-07T01:11:36.001Z,0
2018-07-07T01:12:16.408Z,0
2018-07-07T01:12:56.844Z,0
2018-07-07T01:13:37.225Z,0
2018-07-07T01:14:17.685Z,0
2018-07-07T01:14:58.088Z,0
2018-07-07T01:15:38.509Z,0
2018-07-07T01:16:18.836Z,0
2018-07-07T01:16:59.246Z,0
2018-07-07T01:17:39.663Z,0
2018-07-07T01:18:20.107Z,0
2018-07-07T01:19:00.558Z,0
2018-07-07T01:19:40.923Z,0
2018-07-07T01:20:21.343Z,0
2018-07-07T01:21:01.718Z,0
2018-07-07T01:21:42.181Z,0
2018-07-07T01:22:22.523Z,0
2018-07-07T01:23:02.964Z,0
2018-07-07T01:23:43.293Z,0
2018-07-07T01:24:23.712Z,0
2018-07-07T01:25:04.165Z,0
2018-07-07T01:25:44.533Z,0
2018-07-07T01:26:24.982Z,0
2018-07-07T01:27:05.348Z,0
2018-07-07T01:27:45.778Z,0
2018-07-07T01:28:26.219Z,0
2018-07-07T01:29:06.572Z,0
2018-07-07T01:29:46.944Z,0
2018-07-07T01:30:27.333Z,0
2018-07-07T01:31:07.769Z,0
2018-07-07T01:31:48.174Z,0
2018-07-07T01:32:28.614Z,0
2018-07-07T01:33:09.041Z,0
2018-07-07T01:33:49.502Z,0
2018-07-07T01:34:29.851Z,0
2018-07-07T01:35:10.227Z,0
2018-07-07T01:35:50.642Z,0
2018-07-07T01:36:31.065Z,0
2018-07-07T01:37:11.473Z,0
2018-07-07T01:37:51.923Z,0
2018-07-07T01:38:32.298Z,0
2018-07-07T01:39:12.700Z,0
2018-07-07T01:39:53.150Z,0
2018-07-07T01:40:33.925Z,0
2018-07-07T01:41:14.270Z,0
2018-07-07T01:41:54.621Z,0
2018-07-07T01:42:35.121Z,0
2018-07-07T01:43:15.469Z,0
2018-07-07T01:43:55.890Z,0
2018-07-07T01:44:36.263Z,0
2018-07-07T01:45:16.648Z,0
2018-07-07T01:45:57.125Z,0
2018-07-07T01:46:37.506Z,0
2018-07-07T01:47:17.954Z,0
2018-07-07T01:47:58.286Z,0
2018-07-07T01:48:38.769Z,0
2018-07-07T01:49:19.110Z,0
2018-07-07T01:49:59.591Z,0
2018-07-07T01:50:39.948Z,0
2018-07-07T01:51:20.377Z,0
2018-07-07T01:52:00.822Z,0
2018-07-07T01:52:41.258Z,0
2018-07-07T01:53:21.690Z,0
2018-07-07T01:54:02.048Z,0
2018-07-07T01:54:42.507Z,0
2018-07-07T01:55:22.867Z,0
2018-07-07T01:56:03.311Z,0
2018-07-07T01:56:43.723Z,0
2018-07-07T01:57:24.091Z,0
2018-07-07T01:58:04.524Z,0
2018-07-07T01:58:44.915Z,0
2018-07-07T01:59:25.357Z,0
2018-07-07T02:00:05.752Z,0
2018-07-07T02:00:46.146Z,0
2018-07-07T02:01:26.532Z,0
2018-07-07T02:07:15.818Z,0
2018-07-07T02:07:56.243Z,0
2018-07-07T02:08:36.603Z,0
2018-07-07T02:09:16.977Z,0
2018-07-07T02:09:57.377Z,0
2018-07-07T02:10:37.789Z,0
2018-07-07T02:11:18.162Z,0
2018-07-07T02:11:58.607Z,0
2018-07-07T02:12:38.971Z,0
2018-07-07T02:13:19.364Z,0
2018-07-07T02:13:59.743Z,0
2018-07-07T02:14:40.138Z,0
2018-07-07T02:15:20.613Z,0
2018-07-07T02:16:00.976Z,0
2018-07-07T02:16:41.323Z,0
2018-07-07T02:17:21.754Z,0
2018-07-07T02:18:02.199Z,0
2018-07-07T02:18:42.599Z,0
2018-07-07T02:19:22.945Z,0
2018-07-07T02:20:03.376Z,0
2018-07-07T02:20:43.823Z,0
2018-07-07T02:21:24.215Z,0
2018-07-07T02:22:04.566Z,0
2018-07-07T02:22:45.009Z,0
2018-07-07T02:23:25.434Z,0
2018-07-07T02:24:05.781Z,0
2018-07-07T02:24:46.236Z,0
2018-07-07T02:25:26.664Z,0
2018-07-07T02:26:07.021Z,0
2018-07-07T02:26:47.399Z,0
2018-07-07T02:27:27.831Z,0
2018-07-07T02:28:08.304Z,0
2018-07-07T02:28:48.668Z,0
2018-07-07T02:29:29.070Z,0
2018-07-07T02:30:09.416Z,0
2018-07-07T02:30:49.862Z,0
2018-07-07T02:31:30.251Z,0
2018-07-07T02:32:10.664Z,0
2018-07-07T02:32:51.073Z,0
2018-07-07T02:33:31.557Z,0
2018-07-07T02:34:11.868Z,0
2018-07-07T02:34:52.306Z,0
2018-07-07T02:35:32.700Z,0
2018-07-07T02:36:13.185Z,0
2018-07-07T02:36:53.495Z,0
2018-07-07T02:37:34.013Z,0
2018-07-07T02:38:14.310Z,0
2018-07-07T02:38:54.754Z,0
2018-07-07T02:39:35.152Z,0
2018-07-07T02:40:15.623Z,0
2018-07-07T02:40:55.931Z,0
2018-07-07T02:41:36.438Z,0
2018-07-07T02:42:16.730Z,0
2018-07-07T02:42:57.254Z,0
2018-07-07T02:43:37.634Z,0
2018-07-07T02:44:17.969Z,0
2018-07-07T02:44:58.422Z,0
2018-07-07T02:45:38.915Z,0
2018-07-07T02:46:19.283Z,0
2018-07-07T02:46:59.590Z,0
2018-07-07T02:47:40.073Z,0
2018-07-07T02:48:20.574Z,0
2018-07-07T02:49:00.940Z,0
2018-07-07T02:49:41.287Z,0
2018-07-07T02:50:21.673Z,0
2018-07-07T02:51:02.118Z,0
2018-07-07T02:51:42.553Z,0
2018-07-07T02:52:23.073Z,0
2018-07-07T02:53:03.619Z,0
2018-07-07T02:53:44.043Z,0
2018-07-07T02:54:24.426Z,0
2018-07-07T02:55:04.864Z,0
2018-07-07T02:55:45.132Z,0
2018-07-07T02:56:25.610Z,0
2018-07-07T02:57:06.054Z,0
2018-07-07T02:57:46.401Z,0
2018-07-07T02:58:26.806Z,4
2018-07-07T02:59:07.284Z,4
2018-07-07T02:59:47.655Z,4
2018-07-07T03:00:28.091Z,4
2018-07-07T03:01:08.479Z,4
2018-07-07T03:01:48.904Z,4
2018-07-07T03:02:29.290Z,0
2018-07-07T03:03:09.724Z,0
2018-07-07T03:03:50.083Z,0
2018-07-07T03:04:30.483Z,0
2018-07-07T03:05:10.963Z,4
2018-07-07T03:05:51.363Z,4
2018-07-07T03:06:31.687Z,4
2018-07-07T03:07:12.099Z,4
2018-07-07T03:07:52.489Z,4
2018-07-07T03:08:32.956Z,4
2018-07-07T03:09:13.362Z,4
2018-07-07T03:09:53.819Z,4
2018-07-07T03:10:34.164Z,4
2018-07-07T03:11:14.590Z,8
2018-07-07T03:11:55.009Z,4
2018-07-07T03:12:35.428Z,4
2018-07-07T03:13:15.933Z,4
2018-07-07T03:13:56.300Z,8
2018-07-07T03:14:36.670Z,8
2018-07-07T03:15:17.046Z,8
2018-07-07T03:19:45.849Z,8
2018-07-07T03:20:32.095Z,12
2018-07-07T03:21:12.444Z,12
2018-07-07T03:21:52.854Z,12
2018-07-07T03:22:33.291Z,12
2018-07-07T03:23:13.731Z,16
2018-07-07T03:23:54.103Z,16
2018-07-07T03:24:34.530Z,16
2018-07-07T03:25:15.002Z,20
2018-07-07T03:25:55.281Z,24
2018-07-07T03:26:35.723Z,28
2018-07-07T03:27:16.112Z,28
2018-07-07T03:27:56.528Z,32
2018-07-07T03:28:36.935Z,36
2018-07-07T03:29:17.316Z,36
2018-07-07T03:29:57.716Z,44
2018-07-07T03:30:38.175Z,48
2018-07-07T03:31:18.507Z,48
2018-07-07T03:31:58.966Z,48
2018-07-07T03:32:39.375Z,56
2018-07-07T03:33:19.778Z,56
2018-07-07T03:34:00.151Z,60
2018-07-07T03:34:40.616Z,64
2018-07-07T03:35:20.953Z,68
2018-07-07T03:36:01.351Z,72
2018-07-07T03:36:41.848Z,72
2018-07-07T03:37:22.265Z,76
2018-07-07T03:38:02.675Z,80
2018-07-07T03:38:43.073Z,84
2018-07-07T03:39:23.412Z,88
2018-07-07T03:40:03.849Z,92
2018-07-07T03:40:44.244Z,96
2018-07-07T03:41:24.811Z,96
2018-07-07T03:42:05.216Z,100
2018-07-07T03:42:45.567Z,108
2018-07-07T03:43:26.054Z,108
2018-07-07T03:44:06.415Z,112
2018-07-07T03:44:46.799Z,116
2018-07-07T03:45:27.182Z,124
2018-07-07T03:46:07.624Z,132
2018-07-07T03:46:47.969Z,136
2018-07-07T03:47:28.417Z,144
2018-07-07T03:48:08.809Z,148
2018-07-07T03:48:49.274Z,156
2018-07-07T03:49:29.662Z,168
2018-07-07T03:50:10.042Z,172
2018-07-07T03:50:50.442Z,180
2018-07-07T03:51:30.855Z,188
2018-07-07T03:52:11.227Z,196
2018-07-07T03:52:51.607Z,208
2018-07-07T03:53:32.034Z,216
2018-07-07T03:54:12.465Z,224
2018-07-07T03:54:52.874Z,228
2018-07-07T03:55:33.237Z,244
2018-07-07T03:56:13.684Z,252
2018-07-07T03:56:54.057Z,264
2018-07-07T03:57:34.496Z,272
2018-07-07T03:58:14.935Z,284
2018-07-07T03:58:55.450Z,296
2018-07-07T03:59:35.763Z,304
2018-07-07T04:00:16.272Z,316
2018-07-07T04:00:56.594Z,328
2018-07-07T04:01:37.104Z,340
2018-07-07T04:02:17.520Z,360
2018-07-07T04:02:57.968Z,376
2018-07-07T04:03:38.448Z,392
2018-07-07T04:51:29.439Z,1332
2018-07-07T04:52:09.924Z,1168
2018-07-07T04:52:50.293Z,1232
2018-07-07T04:53:30.665Z,1348
2018-07-07T04:54:11.023Z,1540
2018-07-07T04:54:51.525Z,1728
2018-07-07T04:55:31.893Z,1796
2018-07-07T04:56:12.255Z,1960
2018-07-07T04:56:52.629Z,2216
2018-07-07T04:57:33.147Z,2164
2018-07-07T04:58:13.508Z,2660
2018-07-07T04:58:53.928Z,2696
2018-07-07T04:59:34.423Z,2892
2018-07-07T05:00:14.713Z,3900
2018-07-07T05:00:55.154Z,6012
2018-07-07T05:01:35.542Z,7128
2018-07-07T05:02:15.884Z,7288
2018-07-07T05:02:56.377Z,6744
2018-07-07T05:03:36.749Z,6964
2018-07-07T05:04:17.185Z,7032
2018-07-07T05:04:57.608Z,7400
2018-07-07T05:05:37.961Z,6512
2018-07-07T05:06:18.434Z,7124
2018-07-07T05:06:58.785Z,6440
2018-07-07T05:07:39.147Z,6392
2018-07-07T05:08:19.650Z,5820
2018-07-07T05:09:00.051Z,6388
2018-07-07T05:09:40.798Z,6132
2018-07-07T05:10:21.403Z,7088
2018-07-07T05:11:01.590Z,7288
2018-07-07T05:11:42.136Z,8884
2018-07-07T05:12:22.393Z,9804
2018-07-07T05:13:02.822Z,10404
2018-07-07T05:13:43.419Z,12704
2018-07-07T05:14:24.023Z,13888
2018-07-07T05:15:04.244Z,15232
2018-07-07T05:15:44.717Z,16736
2018-07-07T05:16:25.137Z,17248
2018-07-07T05:17:05.633Z,17440
2018-07-07T05:17:46.007Z,17120
2018-07-07T05:18:26.440Z,17056
2018-07-07T05:19:06.889Z,17184
2018-07-07T05:19:47.307Z,17344
2018-07-07T05:20:27.714Z,14240
2018-07-07T05:21:08.105Z,13312
2018-07-07T05:21:48.458Z,10868
2018-07-07T05:22:28.937Z,8624
2018-07-07T05:23:09.286Z,9388
2018-07-07T05:23:49.768Z,8832
2018-07-07T05:24:30.091Z,11836
2018-07-07T05:25:10.547Z,16192
2018-07-07T05:25:50.928Z,18528
2018-07-07T05:26:31.361Z,18624
2018-07-07T05:27:14.776Z,18368
2018-07-07T05:27:55.178Z,19136
2018-07-07T05:28:35.659Z,18048
2018-07-07T05:29:16.056Z,17344
2018-07-07T05:29:56.471Z,17920
2018-07-07T05:30:36.894Z,15712
2018-07-07T05:31:17.296Z,15744
2018-07-07T05:31:57.695Z,13312
2018-07-07T05:32:38.105Z,14592
2018-07-07T05:33:18.504Z,17472
2018-07-07T05:36:05.155Z,19200
2018-07-07T05:36:45.696Z,19488
2018-07-07T05:37:26.104Z,18304
2018-07-07T05:38:06.486Z,16320
2018-07-07T05:38:46.938Z,12032
2018-07-07T05:39:27.292Z,16768
2018-07-07T05:40:07.750Z,6688
2018-07-07T05:40:48.109Z,16160
2018-07-07T05:41:28.526Z,6160
2018-07-07T05:42:08.939Z,5608
2018-07-07T05:42:49.384Z,5248
2018-07-07T05:43:29.709Z,15872
2018-07-07T05:44:10.207Z,5284
2018-07-07T05:44:50.569Z,6360
2018-07-07T05:45:31.018Z,20192
2018-07-07T05:46:11.450Z,7852
2018-07-07T05:46:51.863Z,22144
2018-07-07T05:47:32.260Z,12140
2018-07-07T05:48:12.704Z,20704
2018-07-07T05:48:53.051Z,8340
2018-07-07T05:49:33.588Z,7504
2018-07-07T05:50:13.917Z,15744
2018-07-07T05:50:54.424Z,20032
2018-07-07T05:51:34.744Z,9468
2018-07-07T05:52:15.131Z,13084
2018-07-07T05:52:55.583Z,17536
2018-07-07T05:53:35.985Z,21792
2018-07-07T05:54:16.349Z,21056
2018-07-07T05:54:56.763Z,19712
2018-07-07T05:55:37.156Z,10080
2018-07-07T05:56:17.620Z,12156
2018-07-07T05:56:58.060Z,20480
2018-07-07T05:57:38.463Z,18368
2018-07-07T05:58:18.851Z,12596
2018-07-07T05:58:59.311Z,11060
2018-07-07T05:59:39.644Z,11972
2018-07-07T06:00:20.053Z,9988
2018-07-07T06:01:00.437Z,10892
2018-07-07T06:01:40.821Z,18656
2018-07-07T06:02:21.242Z,7860
2018-07-07T06:03:01.769Z,8732
2018-07-07T06:03:42.132Z,8948
2018-07-07T06:04:22.559Z,6872
2018-07-07T06:05:02.969Z,4896
2018-07-07T06:05:43.376Z,3984
2018-07-07T06:06:23.801Z,17984
2018-07-07T06:07:04.240Z,3784
2018-07-07T06:07:44.705Z,21440
2018-07-07T06:08:25.115Z,14976
2018-07-07T06:09:05.781Z,4680
2018-07-07T06:09:46.064Z,5140
2018-07-07T06:10:26.519Z,5320
2018-07-07T06:11:06.939Z,7460
2018-07-07T06:11:47.334Z,4800
2018-07-07T06:14:10.918Z,2752
2018-07-07T06:14:51.348Z,2772
2018-07-07T06:15:31.781Z,2888
2018-07-07T06:16:12.209Z,2972
2018-07-07T06:16:53.466Z,3468
2018-07-07T06:17:33.734Z,3388
2018-07-07T06:18:14.129Z,4712
2018-07-07T06:18:54.581Z,3616
2018-07-07T06:19:34.978Z,3900
2018-07-07T06:20:15.333Z,19904
2018-07-07T06:20:55.727Z,4496
2018-07-07T06:21:36.674Z,4156
2018-07-07T06:22:17.246Z,5616
2018-07-07T06:22:57.471Z,5096
2018-07-07T06:23:37.902Z,16000
2018-07-07T06:24:18.403Z,5640
2018-07-07T06:24:58.751Z,5608
2018-07-07T06:25:39.101Z,5104
2018-07-07T06:26:19.575Z,5140
2018-07-07T06:27:00.096Z,6336
2018-07-07T06:27:40.638Z,4792
2018-07-07T06:28:21.026Z,4436
2018-07-07T06:29:01.434Z,4464
2018-07-07T06:29:42.179Z,5280
2018-07-07T06:30:22.604Z,4440
2018-07-07T06:31:03.054Z,4804
2018-07-07T06:31:43.557Z,6260
2018-07-07T06:32:23.877Z,5216
2018-07-07T06:33:05.043Z,4888
2018-07-07T06:35:33.561Z,6604
2018-07-07T06:36:13.037Z,7092
2018-07-07T06:36:53.364Z,8616
2018-07-07T06:37:34.000Z,6744
2018-07-07T06:38:14.296Z,18176
2018-07-07T06:38:54.649Z,5916
2018-07-07T06:39:35.109Z,5488
2018-07-07T06:40:15.619Z,5568
2018-07-07T06:40:55.973Z,5960
2018-07-07T06:41:36.375Z,22208
2018-07-07T06:42:16.808Z,6704
2018-07-07T06:42:57.348Z,6496
2018-07-07T06:43:37.647Z,6844
2018-07-07T06:44:18.013Z,8064
2018-07-07T06:44:58.498Z,6712
2018-07-07T06:45:38.852Z,6728
2018-07-07T06:46:19.298Z,7184
2018-07-07T06:46:59.677Z,16192
2018-07-07T06:47:40.085Z,7716
2018-07-07T06:48:20.622Z,7940
2018-07-07T06:49:00.989Z,13556
2018-07-07T06:49:41.334Z,12420
2018-07-07T06:50:21.813Z,18720
2018-07-07T06:51:02.219Z,8656
2018-07-07T06:51:42.698Z,8996
2018-07-07T06:52:23.271Z,16224
2018-07-07T06:53:03.598Z,17920
2018-07-07T06:53:44.040Z,19712
2018-07-07T06:54:24.394Z,16448
2018-07-07T06:55:04.792Z,18720
2018-07-07T06:55:45.235Z,20544
2018-07-07T06:56:25.651Z,19840
2018-07-07T06:57:06.055Z,10652
2018-07-07T06:57:46.510Z,16352
2018-07-07T06:58:26.881Z,14460
2018-07-07T06:59:07.308Z,17024
2018-07-07T07:02:55.534Z,32896
2018-07-07T07:05:12.376Z,32896
2018-07-07T07:05:52.836Z,34528
2018-07-07T07:06:33.434Z,34208
2018-07-07T07:07:13.798Z,34784
2018-07-07T07:07:54.199Z,34528
2018-07-07T07:08:34.600Z,35232
2018-07-07T07:09:14.959Z,34528
2018-07-07T07:09:55.467Z,34176
2018-07-07T07:10:35.946Z,33728
2018-07-07T07:11:16.310Z,33632
2018-07-07T07:11:56.693Z,35968
2018-07-07T07:12:37.075Z,36640
2018-07-07T07:13:17.485Z,36416
2018-07-07T07:13:57.931Z,35104
2018-07-07T07:14:38.368Z,36032
2018-07-07T07:15:18.836Z,34976
2018-07-07T07:15:59.202Z,35488
2018-07-07T07:16:39.650Z,37536
2018-07-07T07:17:20.073Z,37952
2018-07-07T07:18:00.555Z,35136
2018-07-07T07:18:40.915Z,29536
2018-07-07T07:19:24.283Z,20960
2018-07-07T07:20:04.693Z,15704
2018-07-07T07:20:45.073Z,14832
2018-07-07T07:21:25.481Z,13848
2018-07-07T07:26:30.124Z,12120
2018-07-07T07:27:10.566Z,11872
2018-07-07T07:27:51.073Z,11628
2018-07-07T07:28:31.480Z,11344
2018-07-07T07:29:11.869Z,11236
2018-07-07T07:29:52.399Z,11380
2018-07-07T07:30:32.929Z,10680
2018-07-07T07:31:13.226Z,10776
2018-07-07T07:31:53.706Z,9712
2018-07-07T07:32:34.040Z,10280
2018-07-07T07:33:14.516Z,10416
2018-07-07T07:33:54.917Z,10032
2018-07-07T07:34:35.308Z,9680
2018-07-07T07:35:15.742Z,9884
2018-07-07T07:35:56.184Z,10288
2018-07-07T07:36:36.600Z,10116
2018-07-07T07:37:16.966Z,9788
2018-07-07T07:37:57.547Z,9316
2018-07-07T07:38:38.142Z,9152
2018-07-07T07:39:18.539Z,8736
2018-07-07T07:39:59.093Z,9580
2018-07-07T07:40:39.530Z,9608
2018-07-07T07:41:20.045Z,9500
2018-07-07T07:42:00.409Z,9240
2018-07-07T07:42:40.824Z,8392
2018-07-07T07:43:21.199Z,8120
2018-07-07T07:44:01.738Z,7856
2018-07-07T07:44:42.157Z,7696
2018-07-07T07:45:22.600Z,7512
2018-07-07T07:46:03.199Z,7324
2018-07-07T07:46:43.420Z,7176
2018-07-07T07:47:24.066Z,7128
2018-07-07T07:48:04.443Z,7192
2018-07-07T07:48:44.874Z,7272
2018-07-07T07:49:25.227Z,7320
2018-07-07T07:50:05.627Z,7132
2018-07-07T07:50:46.093Z,6832
2018-07-07T07:51:26.435Z,6196
2018-07-07T07:52:07.044Z,5840
2018-07-07T07:52:47.557Z,5744
2018-07-07T07:53:27.845Z,5820
2018-07-07T07:54:08.264Z,5992
2018-07-07T07:54:48.770Z,6224
2018-07-07T07:55:29.118Z,6432
2018-07-07T07:56:09.504Z,6908
2018-07-07T07:56:50.044Z,6708
2018-07-07T07:57:30.397Z,6864
2018-07-07T07:58:10.831Z,6908
2018-07-07T07:58:51.511Z,7368
2018-07-07T07:59:31.719Z,7520
2018-07-07T08:00:12.133Z,7352
2018-07-07T08:00:52.606Z,6916
2018-07-07T08:01:32.963Z,6988
2018-07-07T08:02:13.385Z,7064
2018-07-07T08:02:53.864Z,6900
2018-07-07T08:03:34.301Z,6824
2018-07-07T08:04:14.718Z,6656
2018-07-07T08:04:55.308Z,6620
2018-07-07T08:05:35.648Z,6636
2018-07-07T08:06:16.023Z,6396
2018-07-07T08:06:56.541Z,6648
2018-07-07T08:07:36.868Z,6504
2018-07-07T08:08:17.291Z,6436
2018-07-07T08:08:57.795Z,6416
2018-07-07T08:09:38.373Z,6352
2018-07-07T08:10:19.014Z,6364
2018-07-07T08:10:59.345Z,6244
2018-07-07T08:11:40.112Z,6052
2018-07-07T08:12:20.614Z,5780
2018-07-07T08:14:40.165Z,5312
2018-07-07T08:15:19.662Z,5180
2018-07-07T08:16:00.122Z,5144
2018-07-07T08:16:40.477Z,5124
2018-07-07T08:17:21.078Z,5164
2018-07-07T08:18:01.539Z,5120
2018-07-07T08:18:41.944Z,5088
2018-07-07T08:19:22.426Z,5104
2018-07-07T08:20:02.776Z,5124
2018-07-07T08:20:43.272Z,5184
2018-07-07T08:21:23.607Z,5212
2018-07-07T08:22:04.037Z,5180
2018-07-07T08:22:44.481Z,5120
2018-07-07T08:23:24.941Z,5064
2018-07-07T08:24:05.295Z,4944
2018-07-07T08:24:45.730Z,4660
2018-07-07T08:25:26.168Z,4716
2018-07-07T08:26:06.621Z,4552
2018-07-07T08:26:47.125Z,4484
2018-07-07T08:27:27.549Z,4564
2018-07-07T08:28:07.997Z,4580
2018-07-07T08:28:48.428Z,4556
2018-07-07T08:29:29.141Z,4540
2018-07-07T08:30:09.628Z,4472
2018-07-07T08:30:50.176Z,4424
2018-07-07T08:31:30.617Z,4336
2018-07-07T08:32:10.962Z,4376
2018-07-07T08:32:51.364Z,4320
2018-07-07T08:33:32.201Z,4236
2018-07-07T08:34:12.630Z,4132
2018-07-07T08:34:53.132Z,4028
2018-07-07T08:35:33.483Z,3932
2018-07-07T08:36:13.989Z,3864
2018-07-07T08:36:54.410Z,3804
2018-07-07T08:37:34.741Z,3776
2018-07-07T08:38:15.184Z,3748
2018-07-07T08:38:55.652Z,3720
2018-07-07T08:39:36.029Z,3700
2018-07-07T08:40:16.441Z,3664
2018-07-07T08:40:56.852Z,3628
2018-07-07T08:41:37.265Z,3584
2018-07-07T08:42:17.695Z,3524
2018-07-07T08:42:58.118Z,3472
2018-07-07T08:43:38.633Z,3420
2018-07-07T08:44:18.974Z,3364
2018-07-07T08:44:59.353Z,3304
2018-07-07T08:45:39.793Z,3252
2018-07-07T08:46:20.237Z,3200
2018-07-07T08:47:00.639Z,3156
2018-07-07T08:47:41.039Z,3124
2018-07-07T08:48:21.452Z,3100
2018-07-07T08:49:01.931Z,3088
2018-07-07T08:49:42.352Z,3080
2018-07-07T08:50:22.856Z,3044
2018-07-07T08:51:03.574Z,3024
2018-07-07T08:51:44.084Z,3020
2018-07-07T08:52:25.380Z,3012
2018-07-07T08:53:07.628Z,2988
2018-07-07T08:53:48.061Z,2944
2018-07-07T08:54:28.621Z,2896
2018-07-07T08:55:08.882Z,2840
2018-07-07T08:55:49.376Z,2788
2018-07-07T08:56:29.808Z,2752
2018-07-07T08:57:10.341Z,2728
2018-07-07T08:57:50.766Z,2700
2018-07-07T08:58:31.102Z,2672
2018-07-07T08:59:11.522Z,2640
2018-07-07T08:59:51.920Z,2608
2018-07-07T09:00:33.123Z,2584
2018-07-07T09:01:13.626Z,2584
2018-07-07T09:01:53.976Z,2584
2018-07-07T09:02:34.410Z,2592
2018-07-07T09:03:14.856Z,2600
2018-07-07T09:03:55.314Z,2608
2018-07-07T09:04:35.725Z,2584
2018-07-07T09:05:16.181Z,2556
2018-07-07T09:05:56.604Z,2528
2018-07-07T09:06:37.081Z,2504
2018-07-07T09:07:17.514Z,2476
2018-07-07T09:07:59.057Z,2464
2018-07-07T09:08:39.286Z,2432
2018-07-07T09:09:19.733Z,2416
2018-07-07T09:10:00.611Z,2396
2018-07-07T09:10:41.051Z,2376
2018-07-07T09:11:21.480Z,2348
2018-07-07T09:12:02.107Z,2324
2018-07-07T09:12:42.312Z,2296
2018-07-07T09:13:22.900Z,2268
2018-07-07T09:14:03.310Z,2260
2018-07-07T09:14:43.610Z,2248
2018-07-07T09:15:24.149Z,2236
2018-07-07T09:16:04.768Z,2228
2018-07-07T09:16:45.309Z,2216
2018-07-07T09:17:25.698Z,2204
2018-07-07T09:18:06.724Z,2192
2018-07-07T09:18:47.289Z,2196
2018-07-07T09:19:27.719Z,2184
2018-07-07T09:20:08.818Z,2176
2018-07-07T09:20:49.282Z,2164
2018-07-07T09:21:29.689Z,2152
2018-07-07T09:22:10.258Z,2144
2018-07-07T09:22:50.980Z,2156
2018-07-07T09:23:31.317Z,2152
2018-07-07T09:24:11.833Z,2144
2018-07-07T09:24:52.244Z,2128
2018-07-07T09:25:32.798Z,2116
2018-07-07T09:26:13.165Z,2104
2018-07-07T09:26:53.731Z,2100
2018-07-07T09:27:34.198Z,2092
2018-07-07T09:28:14.593Z,2088
2018-07-07T09:28:55.036Z,2088
2018-07-07T09:29:35.488Z,2084
2018-07-07T09:30:15.927Z,2092
2018-07-07T09:30:56.377Z,2084
2018-07-07T09:31:36.819Z,2080
2018-07-07T09:32:17.227Z,2084
2018-07-07T09:32:57.657Z,2088
2018-07-07T09:33:38.286Z,2092
2018-07-07T09:34:18.498Z,2088
2018-07-07T09:34:58.941Z,2088
2018-07-07T09:35:39.402Z,2084
2018-07-07T09:36:19.741Z,2080
2018-07-07T09:37:00.236Z,2068
2018-07-07T09:37:40.816Z,2060
2018-07-07T09:38:21.268Z,2048
2018-07-07T09:39:01.709Z,2032
2018-07-07T09:39:42.152Z,2028
2018-07-07T09:40:22.545Z,2012
2018-07-07T09:41:03.083Z,2000
2018-07-07T09:41:43.372Z,1984
2018-07-07T09:42:23.802Z,1968
2018-07-07T09:43:04.418Z,1960
2018-07-07T09:43:44.741Z,1952
2018-07-07T09:44:25.140Z,1948
2018-07-07T09:45:05.530Z,1948
2018-07-07T09:45:46.336Z,1948
2018-07-07T09:46:26.786Z,1956
2018-07-07T09:47:07.216Z,1956
2018-07-07T09:47:47.813Z,1952
2018-07-07T09:48:28.247Z,1952
2018-07-07T09:49:08.627Z,1948
2018-07-07T09:49:49.076Z,1940
2018-07-07T09:50:29.470Z,1936
2018-07-07T09:51:09.881Z,1932
2018-07-07T09:51:50.317Z,1932
2018-07-07T09:52:30.729Z,1936
2018-07-07T09:53:11.168Z,1936
2018-07-07T09:53:51.534Z,1940
2018-07-07T09:54:32.007Z,1956
2018-07-07T09:55:12.419Z,1960
2018-07-07T09:55:52.871Z,1960
2018-07-07T09:56:33.744Z,1960
2018-07-07T09:57:14.269Z,1964
2018-07-07T09:57:54.656Z,1976
2018-07-07T09:58:35.056Z,1972
2018-07-07T09:59:15.533Z,1968
2018-07-07T09:59:55.910Z,1960
2018-07-07T10:00:36.330Z,1960
2018-07-07T10:01:16.815Z,1960
2018-07-07T10:01:57.306Z,1944
2018-07-07T10:02:37.629Z,1924
2018-07-07T10:03:18.078Z,1908
2018-07-07T10:03:58.590Z,1904
2018-07-07T10:04:38.995Z,1904
2018-07-07T10:50:36.471Z,1696
2018-07-07T10:51:15.887Z,1688
2018-07-07T10:51:56.393Z,1676
2018-07-07T10:52:37.216Z,1664
2018-07-07T10:53:17.732Z,1660
2018-07-07T10:53:58.075Z,1656
2018-07-07T10:54:38.796Z,1656
2018-07-07T10:55:19.133Z,1652
2018-07-07T10:55:59.550Z,1644
2018-07-07T10:56:40.000Z,1640
2018-07-07T10:57:20.415Z,1636
2018-07-07T10:58:00.885Z,1636
2018-07-07T10:58:41.387Z,1632
2018-07-07T10:59:21.720Z,1616
2018-07-07T11:00:02.169Z,1612
2018-07-07T11:00:42.589Z,1608
2018-07-07T11:01:22.996Z,1608
2018-07-07T11:02:03.446Z,1608
2018-07-07T11:02:43.875Z,1608
2018-07-07T11:03:24.308Z,1612
2018-07-07T11:04:04.965Z,1608
2018-07-07T11:04:45.280Z,1604
2018-07-07T11:05:26.255Z,1592
2018-07-07T11:06:07.448Z,1608
2018-07-07T11:06:47.947Z,1608
2018-07-07T11:07:28.572Z,1608
2018-07-07T11:08:09.010Z,1604
2018-07-07T11:08:49.374Z,1604
2018-07-07T11:09:29.826Z,1592
2018-07-07T11:10:10.387Z,1600
2018-07-07T11:10:50.836Z,1592
2018-07-07T11:11:31.261Z,1596
2018-07-07T11:12:11.685Z,1608
2018-07-07T11:12:52.111Z,1608
2018-07-07T11:13:32.573Z,1604
2018-07-07T11:14:12.947Z,1584
2018-07-07T11:14:53.574Z,1604